createdAt,value
2022-09-04T00:14:54.817Z,9.90
2022-09-04T00:38:20.815Z,9.30
2022-09-04T00:50:18.843Z,9.70
2022-09-04T00:53:17.853Z,9.60
2022-09-04T01:01:40.271Z,9.40
2022-09-04T01:10:43.851Z,9.60
2022-09-04T01:13:51.838Z,9.70
2022-09-04T01:29:22.831Z,10.60
2022-09-04T01:43:28.842Z,10.60
2022-09-04T02:00:21.858Z,9.60
2022-09-04T02:03:37.863Z,9.30
2022-09-04T02:12:33.890Z,8.90
2022-09-04T02:15:49.870Z,8.60
2022-09-04T02:21:49.869Z,8.80
2022-09-04T02:36:28.862Z,9.30
2022-09-04T02:39:31.014Z,9.50
2022-09-04T02:51:13.947Z,9.80
2022-09-04T02:59:56.886Z,9.30
2022-09-04T03:11:37.917Z,9.30
2022-09-04T03:22:57.993Z,9.60
2022-09-04T04:22:42.944Z,10.90
2022-09-04T04:32:14.902Z,10.90
2022-09-04T04:52:14.941Z,10.90
2022-09-04T04:55:01.065Z,10.90
2022-09-04T04:58:12.936Z,10.70
2022-09-04T05:01:03.167Z,11.00
2022-09-04T05:13:12.937Z,12.40
2022-09-04T05:16:33.989Z,13.20
2022-09-04T05:20:08.954Z,14.20
2022-09-04T05:23:00.950Z,15.00
2022-09-04T05:25:46.804Z,15.40
2022-09-04T05:29:03.969Z,17.20
2022-09-04T05:32:02.145Z,18.00
2022-09-04T05:35:04.967Z,18.40
2022-09-04T05:37:48.659Z,19.40
2022-09-04T05:40:42.964Z,20.80
2022-09-04T05:43:22.497Z,21.60
2022-09-04T05:48:51.341Z,22.40
2022-09-04T05:52:05.936Z,20.60
2022-09-04T05:55:11.200Z,18.20
2022-09-04T05:58:03.952Z,16.50
2022-09-04T06:01:08.945Z,15.30
2022-09-04T06:04:13.029Z,14.50
2022-09-04T06:07:11.967Z,14.10
2022-09-04T06:10:20.014Z,14.40
2022-09-04T06:13:14.975Z,14.60
2022-09-04T06:19:04.970Z,14.30
2022-09-04T06:22:32.003Z,14.20
2022-09-04T06:25:37.962Z,14.10
2022-09-04T06:28:34.002Z,14.00
2022-09-04T06:34:13.983Z,13.80
2022-09-04T06:37:18.071Z,13.70
2022-09-04T06:40:17.981Z,13.80
2022-09-04T06:43:00.040Z,14.00
2022-09-04T06:46:02.500Z,14.70
2022-09-04T06:48:57.975Z,14.90
2022-09-04T06:52:21.975Z,14.90
2022-09-04T06:55:28.000Z,14.70
2022-09-04T07:00:55.012Z,14.90
2022-09-04T07:03:59.080Z,14.80
2022-09-04T07:07:13.004Z,15.20
2022-09-04T07:10:07.233Z,15.60
2022-09-04T07:13:16.004Z,16.10
2022-09-04T07:16:13.037Z,17.60
2022-09-04T07:19:25.986Z,19.30
2022-09-04T07:22:37.986Z,20.80
2022-09-04T07:28:25.096Z,21.10
2022-09-04T07:31:16.229Z,21.80
2022-09-04T07:34:19.977Z,23.20
2022-09-04T07:37:11.087Z,23.90
2022-09-04T07:40:12.014Z,24.00
2022-09-04T07:46:02.070Z,24.60
2022-09-04T07:49:02.007Z,25.20
2022-09-04T07:51:44.150Z,25.40
2022-09-04T07:54:51.991Z,25.20
2022-09-04T07:57:48.073Z,25.50
2022-09-04T08:00:42.003Z,25.50
2022-09-04T08:03:31.591Z,25.20
2022-09-04T08:06:49.005Z,24.70
2022-09-04T08:10:04.032Z,23.70
2022-09-04T08:13:31.997Z,23.70
2022-09-04T08:16:45.027Z,24.00
2022-09-04T08:19:30.090Z,24.20
2022-09-04T08:22:28.171Z,24.80
2022-09-04T08:25:17.160Z,24.70
2022-09-04T08:28:42.998Z,24.00
2022-09-04T08:31:30.214Z,24.10
2022-09-04T08:34:41.001Z,24.30
2022-09-04T08:37:21.110Z,23.80
2022-09-04T08:40:18.098Z,23.40
2022-09-04T08:43:43.042Z,23.60
2022-09-04T08:46:39.250Z,23.50
2022-09-04T08:49:38.051Z,23.70
2022-09-04T08:55:21.038Z,23.40
2022-09-04T08:58:16.108Z,23.00
2022-09-04T09:01:03.081Z,22.90
2022-09-04T09:04:03.116Z,22.60
2022-09-04T09:06:59.031Z,23.00
2022-09-04T09:09:42.286Z,22.60
2022-09-04T09:12:57.057Z,22.90
2022-09-04T09:16:11.146Z,22.70
2022-09-04T09:19:23.048Z,23.00
2022-09-04T09:22:28.051Z,22.90
2022-09-04T09:25:32.110Z,22.60
2022-09-04T09:28:41.091Z,22.30
2022-09-04T09:32:15.062Z,22.20
2022-09-04T09:35:29.050Z,22.40
2022-09-04T09:38:38.063Z,22.40
2022-09-04T09:41:48.197Z,22.50
2022-09-04T09:44:49.058Z,22.80
2022-09-04T09:47:42.113Z,22.30
2022-09-04T09:50:48.059Z,22.80
2022-09-04T09:53:43.796Z,22.70
2022-09-04T09:56:55.078Z,22.40
2022-09-04T10:00:07.147Z,22.50
2022-09-04T10:03:08.066Z,22.00
2022-09-04T10:06:04.056Z,22.10
2022-09-04T10:09:16.087Z,21.40
2022-09-04T10:12:15.052Z,21.60
2022-09-04T10:14:54.141Z,21.50
2022-09-04T10:17:50.050Z,21.50
2022-09-04T10:20:35.290Z,21.40
2022-09-04T10:23:34.082Z,21.60
2022-09-04T10:26:31.824Z,21.80
2022-09-04T10:29:33.092Z,22.00
2022-09-04T10:35:34.100Z,21.70
2022-09-04T10:38:28.196Z,21.70
2022-09-04T10:41:18.090Z,21.90
2022-09-04T10:44:04.298Z,21.90
2022-09-04T10:46:59.103Z,21.40
2022-09-04T10:49:52.133Z,21.50
2022-09-04T10:53:28.575Z,21.60
2022-09-04T10:56:42.092Z,21.40
2022-09-04T10:59:37.156Z,21.40
2022-09-04T11:05:39.107Z,21.60
2022-09-04T11:08:33.098Z,21.90
2022-09-04T11:11:22.184Z,21.90
2022-09-04T11:14:14.090Z,21.70
2022-09-04T11:17:29.086Z,21.60
2022-09-04T11:20:42.119Z,21.80
2022-09-04T11:24:04.071Z,21.80
2022-09-04T11:26:54.897Z,22.00
2022-09-04T11:29:42.080Z,22.20
2022-09-04T11:35:31.102Z,22.00
2022-09-04T11:38:29.188Z,21.70
2022-09-04T11:41:44.104Z,21.60
2022-09-04T11:47:30.118Z,21.70
2022-09-04T11:50:42.693Z,21.60
2022-09-04T11:53:50.119Z,21.30
2022-09-04T11:59:38.105Z,21.50
2022-09-04T12:02:23.257Z,21.80
2022-09-04T12:05:47.120Z,21.60
2022-09-04T12:09:00.108Z,21.40
2022-09-04T12:12:30.138Z,21.50
2022-09-04T12:16:00.176Z,21.70
2022-09-04T12:21:33.117Z,21.20
2022-09-04T12:25:05.408Z,20.90
2022-09-04T12:28:31.099Z,20.80
2022-09-04T12:31:51.464Z,21.10
2022-09-04T12:35:16.120Z,21.20
2022-09-04T12:38:31.142Z,21.30
2022-09-04T12:45:00.145Z,21.20
2022-09-04T12:48:26.139Z,21.20
2022-09-04T12:54:20.124Z,21.60
2022-09-04T12:57:22.148Z,21.50
2022-09-04T13:00:16.878Z,21.60
2022-09-04T13:03:37.144Z,21.30
2022-09-04T13:06:21.216Z,21.20
2022-09-04T13:09:59.176Z,21.10
2022-09-04T13:12:57.155Z,21.30
2022-09-04T13:16:04.250Z,21.60
2022-09-04T13:19:05.186Z,21.70
2022-09-04T13:22:05.161Z,22.00
2022-09-04T13:25:22.153Z,21.90
2022-09-04T13:28:27.193Z,22.00
2022-09-04T13:31:27.264Z,21.50
2022-09-04T13:34:34.086Z,21.50
2022-09-04T13:37:31.258Z,21.70
2022-09-04T13:40:36.162Z,21.70
2022-09-04T13:43:16.245Z,21.80
2022-09-04T13:46:13.305Z,22.10
2022-09-04T13:48:59.186Z,22.10
2022-09-04T13:51:52.155Z,21.90
2022-09-04T13:54:47.195Z,22.00
2022-09-04T13:57:39.182Z,22.50
2022-09-04T14:03:09.195Z,21.80
2022-09-04T14:08:31.220Z,21.80
2022-09-04T14:11:26.285Z,21.80
2022-09-04T14:14:47.202Z,22.20
2022-09-04T14:17:34.236Z,22.30
2022-09-04T14:20:28.207Z,22.30
2022-09-04T14:23:30.273Z,22.20
2022-09-04T14:26:46.188Z,21.90
2022-09-04T14:32:41.108Z,21.40
2022-09-04T14:35:43.221Z,21.00
2022-09-04T14:38:49.397Z,20.80
2022-09-04T14:44:46.213Z,21.10
2022-09-04T14:47:45.332Z,21.10
2022-09-04T14:50:26.187Z,20.90
2022-09-04T14:53:23.220Z,21.00
2022-09-04T14:56:42.200Z,21.20
2022-09-04T14:59:44.299Z,21.10
2022-09-04T15:02:33.220Z,21.40
2022-09-04T15:06:03.241Z,21.70
2022-09-04T15:08:40.797Z,21.40
2022-09-04T15:11:45.212Z,21.50
2022-09-04T15:14:39.206Z,21.80
2022-09-04T15:17:28.382Z,22.10
2022-09-04T15:20:35.225Z,22.00
2022-09-04T15:23:38.208Z,22.20
2022-09-04T15:26:22.186Z,22.30
2022-09-04T15:29:25.237Z,22.10
2022-09-04T15:32:09.423Z,21.50
2022-09-04T15:37:36.208Z,21.00
2022-09-04T15:40:54.293Z,21.00
2022-09-04T15:43:54.211Z,20.80
2022-09-04T15:47:12.365Z,20.90
2022-09-04T15:50:36.197Z,21.20
2022-09-04T15:53:37.247Z,21.60
2022-09-04T15:56:27.219Z,21.20
2022-09-04T15:59:15.167Z,21.20
2022-09-04T16:02:02.275Z,21.00
2022-09-04T16:04:51.319Z,21.20
2022-09-04T16:08:13.247Z,21.40
2022-09-04T16:11:02.396Z,21.30
2022-09-04T16:14:00.261Z,20.80
2022-09-04T16:16:39.457Z,20.30
2022-09-04T16:19:32.267Z,19.70
2022-09-04T16:22:23.298Z,19.40
2022-09-04T16:25:35.257Z,19.10
2022-09-04T16:28:27.246Z,18.70
2022-09-04T16:31:27.268Z,18.50
2022-09-04T16:34:56.245Z,18.40
2022-09-04T16:37:48.359Z,18.20
2022-09-04T16:40:38.257Z,18.10
2022-09-04T16:43:38.261Z,17.90
2022-09-04T16:46:34.383Z,17.80
2022-09-04T16:49:29.270Z,17.70
2022-09-04T16:52:28.277Z,17.50
2022-09-04T16:55:33.268Z,17.40
2022-09-04T16:58:34.783Z,17.20
2022-09-04T17:04:15.278Z,16.80
2022-09-04T17:07:31.268Z,16.70
2022-09-04T17:10:39.285Z,16.60
2022-09-04T17:13:54.495Z,16.50
2022-09-04T17:16:54.285Z,16.50
2022-09-04T17:28:44.719Z,16.10
2022-09-04T17:29:17.548Z,16.00
2022-09-04T17:29:36.049Z,16.10
2022-09-04T17:32:58.372Z,15.90
2022-09-04T17:40:51.464Z,15.70
2022-09-04T17:40:57.003Z,15.90
2022-09-04T17:43:14.813Z,15.40
2022-09-04T17:46:02.429Z,15.20
2022-09-04T17:48:51.292Z,15.20
2022-09-04T17:51:35.681Z,15.00
2022-09-04T17:54:27.029Z,14.90
2022-09-04T17:57:16.278Z,14.90
2022-09-04T18:00:16.272Z,14.70
2022-09-04T18:02:58.389Z,14.70
2022-09-04T18:05:53.487Z,14.50
2022-09-04T18:08:55.795Z,14.30
2022-09-04T18:12:00.227Z,14.30
2022-09-04T18:15:23.044Z,14.40
2022-09-04T18:18:53.303Z,14.10
2022-09-04T18:24:38.300Z,14.30
2022-09-04T18:37:05.817Z,14.30
2022-09-04T18:37:44.085Z,14.10
2022-09-04T18:41:20.823Z,14.00
2022-09-04T18:50:24.469Z,13.90
2022-09-04T18:50:49.495Z,13.90
2022-09-04T18:54:06.341Z,13.90
2022-09-04T18:56:59.310Z,13.90
2022-09-04T18:59:45.607Z,13.80
2022-09-04T19:02:50.779Z,13.80
2022-09-04T19:05:44.431Z,13.60
2022-09-04T19:08:31.391Z,13.50
2022-09-04T19:11:20.678Z,13.40
2022-09-04T19:14:30.347Z,13.60
2022-09-04T19:17:30.269Z,13.40
2022-09-04T19:20:27.365Z,13.30
2022-09-04T19:23:15.223Z,13.10
2022-09-04T19:28:58.328Z,13.30
2022-09-04T19:31:45.471Z,13.30
2022-09-04T19:34:42.451Z,13.40
2022-09-04T19:46:16.094Z,13.50
2022-09-04T19:47:58.395Z,13.50
2022-09-04T19:53:21.408Z,13.30
2022-09-04T19:54:28.327Z,13.40
2022-09-04T19:57:38.319Z,13.20
2022-09-04T20:03:45.929Z,13.20
2022-09-04T20:06:22.676Z,13.20
2022-09-04T20:09:19.321Z,13.10
2022-09-04T20:12:17.367Z,12.90
2022-09-04T20:15:28.254Z,12.60
2022-09-04T20:18:22.353Z,12.70
2022-09-04T20:21:13.532Z,12.40
2022-09-04T20:24:11.346Z,12.20
2022-09-04T20:27:16.858Z,12.20
2022-09-04T20:30:02.347Z,12.20
2022-09-04T20:33:09.500Z,12.40
2022-09-04T20:35:55.342Z,12.50
2022-09-04T20:38:55.917Z,12.10
2022-09-04T20:41:54.347Z,12.50
2022-09-04T20:46:26.442Z,12.20
2022-09-04T20:52:42.419Z,12.20
2022-09-04T20:52:52.039Z,12.20
2022-09-04T20:54:58.535Z,12.50
2022-09-04T21:03:05.441Z,11.90
2022-09-04T21:03:18.287Z,12.20
2022-09-04T21:04:59.425Z,12.00
2022-09-04T21:07:41.439Z,12.10
2022-09-04T21:11:38.757Z,12.20
2022-09-04T21:14:12.367Z,12.30
2022-09-04T21:17:41.366Z,12.30
2022-09-04T21:20:41.846Z,12.40
2022-09-04T21:24:03.786Z,12.20
2022-09-04T21:35:22.698Z,11.60
2022-09-04T21:41:19.540Z,11.40
2022-09-04T21:44:52.417Z,11.30
2022-09-04T21:53:44.400Z,11.20
2022-09-04T22:13:18.872Z,11.00
2022-09-04T22:14:55.200Z,11.00
2022-09-04T22:20:54.123Z,10.90
2022-09-04T22:23:59.385Z,10.70
2022-09-04T22:26:57.611Z,10.80
2022-09-04T22:32:34.008Z,10.70
2022-09-04T22:38:44.375Z,10.80
2022-09-04T22:44:44.392Z,10.70
2022-09-04T22:50:49.067Z,11.00
2022-09-04T22:57:01.397Z,10.90
2022-09-04T23:15:35.414Z,10.70
